Главная страница
METAR-TAF:

METAR-TAF

Аэропорты :

Маджуро, Маршалловы Острова

широта: 07-04N, долгота: 171-17E, высота над уровнем моря: 2 м

Текущие метеонаблюдения

Эта сводка был подготовлена 49 минут назад, в 20:51 UTC
Ветер 20 Узел от северо-восточный
Температура 29°C
Влажность 79%
Давление 1011 hPa
Видимость: 24.1 км
небольшая облачность на высоте 1500 фута
Отдельные облака на высоте 5000 фута
Рассеянная облачность на высоте 30000 фута

METAR: PKMJ 042051Z 04020KT 15SM FEW015 SCT050 BKN300 29/25 A2986

Время: 09:40 (21:40 UTC)

Прогноз

Эта сводка был подготовлена 4 часа и 14 минут назад, в 17:26 UTC
Прогноз действительный с 04-го 18 UTC до 05-го 18 UTC
Ветер 20 Узел от северо-восточный
Видимость: 10 км
Отдельные облака на высоте 1500 фута
Отдельные облака на высоте 5000 фута
Рассеянная облачность на высоте 12000 фута
ливни в окрестностях,

TAF: PKMJ 041726Z 0418/0518 05020KT P6SM VCSH SCT015 SCT050 BKN120

Метеонаблюдения и прогнозы для более 4000 аэропортов (сводки METAR и TAF).

Имеющиеся станции представлены на карте желтыми и красными точками.

Чтобы увидеть название станции, наведите на нее мышь.

Затем щелкните, чтобы увидеть метеонаблюдения и метеопрогнозы.

Управление картой: чтобы увеличить масштаб, щелкните зеленые кнопки с черным крестиком; чтобы уменьшить масштаб, щелкните зеленую кнопку с тире; для просмотра соседних карт щелкайте зеленые стрелки.


METAR-TAF: